sensor_id;sensor_type;location;lat;lon;timestamp;temperature;humidity
35565;DHT22;21668;44.784;10.336;2022-10-16T00:21:05;18.10;99.90
35565;DHT22;21668;44.784;10.336;2022-10-16T00:54:45;18.10;99.90
35565;DHT22;21668;44.784;10.336;2022-10-16T01:41:43;18.00;99.90
35565;DHT22;21668;44.784;10.336;2022-10-16T01:45:02;18.00;99.90
35565;DHT22;21668;44.784;10.336;2022-10-16T01:49:22;18.00;99.90
35565;DHT22;21668;44.784;10.336;2022-10-16T02:01:32;17.90;99.90
35565;DHT22;21668;44.784;10.336;2022-10-16T02:09:57;17.90;99.90
35565;DHT22;21668;44.784;10.336;2022-10-16T02:14:41;17.90;99.90
35565;DHT22;21668;44.784;10.336;2022-10-16T02:17:49;17.90;99.90
35565;DHT22;21668;44.784;10.336;2022-10-16T02:38:25;17.80;99.90
35565;DHT22;21668;44.784;10.336;2022-10-16T02:41:51;17.80;99.90
35565;DHT22;21668;44.784;10.336;2022-10-16T02:45:58;17.80;99.90
35565;DHT22;21668;44.784;10.336;2022-10-16T02:54:21;17.70;99.90
35565;DHT22;21668;44.784;10.336;2022-10-16T03:03:49;17.60;99.90
35565;DHT22;21668;44.784;10.336;2022-10-16T03:08:04;17.60;99.90
35565;DHT22;21668;44.784;10.336;2022-10-16T03:12:41;17.60;99.90
35565;DHT22;21668;44.784;10.336;2022-10-16T03:22:11;17.60;99.90
35565;DHT22;21668;44.784;10.336;2022-10-16T03:51:19;17.10;99.90
35565;DHT22;21668;44.784;10.336;2022-10-16T04:10:24;16.80;99.90
35565;DHT22;21668;44.784;10.336;2022-10-16T04:13:55;16.70;99.90
35565;DHT22;21668;44.784;10.336;2022-10-16T04:33:01;16.70;99.90
35565;DHT22;21668;44.784;10.336;2022-10-16T04:42:02;16.60;99.90
35565;DHT22;21668;44.784;10.336;2022-10-16T04:46:39;16.50;99.90
35565;DHT22;21668;44.784;10.336;2022-10-16T04:50:37;16.40;99.90
35565;DHT22;21668;44.784;10.336;2022-10-16T04:53:51;16.30;99.90
35565;DHT22;21668;44.784;10.336;2022-10-16T04:56:56;16.30;99.90
35565;DHT22;21668;44.784;10.336;2022-10-16T05:00:19;16.20;99.90
35565;DHT22;21668;44.784;10.336;2022-10-16T05:04:06;16.20;99.90
35565;DHT22;21668;44.784;10.336;2022-10-16T05:23:02;16.20;99.90
35565;DHT22;21668;44.784;10.336;2022-10-16T05:53:12;16.40;99.90
35565;DHT22;21668;44.784;10.336;2022-10-16T06:17:41;16.50;99.90
35565;DHT22;21668;44.784;10.336;2022-10-16T06:20:45;16.50;99.90
35565;DHT22;21668;44.784;10.336;2022-10-16T06:23:52;16.50;99.90
35565;DHT22;21668;44.784;10.336;2022-10-16T06:30:22;16.70;99.90
35565;DHT22;21668;44.784;10.336;2022-10-16T06:33:30;16.60;99.90
35565;DHT22;21668;44.784;10.336;2022-10-16T06:36:52;16.70;99.90
35565;DHT22;21668;44.784;10.336;2022-10-16T06:40:07;16.80;99.90
35565;DHT22;21668;44.784;10.336;2022-10-16T06:43:26;16.90;99.90
35565;DHT22;21668;44.784;10.336;2022-10-16T06:46:35;17.00;99.90
35565;DHT22;21668;44.784;10.336;2022-10-16T06:49:41;17.00;99.90
35565;DHT22;21668;44.784;10.336;2022-10-16T07:06:50;17.40;99.90
35565;DHT22;21668;44.784;10.336;2022-10-16T07:09:58;17.50;99.90
35565;DHT22;21668;44.784;10.336;2022-10-16T07:13:10;17.60;99.90
35565;DHT22;21668;44.784;10.336;2022-10-16T07:16:44;17.70;99.90
35565;DHT22;21668;44.784;10.336;2022-10-16T07:30:45;18.10;99.90
35565;DHT22;21668;44.784;10.336;2022-10-16T07:34:03;18.20;99.90
35565;DHT22;21668;44.784;10.336;2022-10-16T08:21:22;20.20;99.90
35565;DHT22;21668;44.784;10.336;2022-10-16T08:24:53;20.40;99.90
35565;DHT22;21668;44.784;10.336;2022-10-16T08:28:10;19.70;99.90
35565;DHT22;21668;44.784;10.336;2022-10-16T08:31:24;20.70;99.90
35565;DHT22;21668;44.784;10.336;2022-10-16T08:34:32;20.80;99.90
35565;DHT22;21668;44.784;10.336;2022-10-16T08:37:39;20.90;99.90
35565;DHT22;21668;44.784;10.336;2022-10-16T08:49:09;20.90;99.90
35565;DHT22;21668;44.784;10.336;2022-10-16T08:52:48;20.70;99.90
35565;DHT22;21668;44.784;10.336;2022-10-16T08:56:14;20.70;99.90
35565;DHT22;21668;44.784;10.336;2022-10-16T08:59:35;20.80;99.90
35565;DHT22;21668;44.784;10.336;2022-10-16T09:02:59;20.90;99.90
35565;DHT22;21668;44.784;10.336;2022-10-16T09:06:48;20.90;99.90
35565;DHT22;21668;44.784;10.336;2022-10-16T09:22:51;21.20;99.90
35565;DHT22;21668;44.784;10.336;2022-10-16T09:27:00;21.70;99.90
35565;DHT22;21668;44.784;10.336;2022-10-16T09:39:50;22.50;99.90
35565;DHT22;21668;44.784;10.336;2022-10-16T09:43:27;22.20;99.90
35565;DHT22;21668;44.784;10.336;2022-10-16T09:51:48;22.10;99.90
35565;DHT22;21668;44.784;10.336;2022-10-16T09:55:59;22.10;99.90
35565;DHT22;21668;44.784;10.336;2022-10-16T10:04:53;22.40;99.90
35565;DHT22;21668;44.784;10.336;2022-10-16T10:28:04;22.90;99.90
35565;DHT22;21668;44.784;10.336;2022-10-16T10:40:48;23.00;99.90
35565;DHT22;21668;44.784;10.336;2022-10-16T11:21:16;23.50;99.90
35565;DHT22;21668;44.784;10.336;2022-10-16T11:29:56;23.10;99.90
35565;DHT22;21668;44.784;10.336;2022-10-16T12:38:51;24.30;99.90
35565;DHT22;21668;44.784;10.336;2022-10-16T12:42:06;24.50;99.90
35565;DHT22;21668;44.784;10.336;2022-10-16T12:45:42;24.60;99.90
35565;DHT22;21668;44.784;10.336;2022-10-16T12:48:51;24.60;99.90
35565;DHT22;21668;44.784;10.336;2022-10-16T12:52:43;24.80;99.90
35565;DHT22;21668;44.784;10.336;2022-10-16T13:06:08;25.30;99.90
35565;DHT22;21668;44.784;10.336;2022-10-16T13:29:21;25.40;99.90
35565;DHT22;21668;44.784;10.336;2022-10-16T13:37:38;25.40;99.90
35565;DHT22;21668;44.784;10.336;2022-10-16T13:50:24;25.60;99.90
35565;DHT22;21668;44.784;10.336;2022-10-16T14:09:36;25.10;99.90
35565;DHT22;21668;44.784;10.336;2022-10-16T14:13:16;24.80;99.90
35565;DHT22;21668;44.784;10.336;2022-10-16T14:16:50;24.90;99.90
35565;DHT22;21668;44.784;10.336;2022-10-16T14:25:25;24.80;99.90
35565;DHT22;21668;44.784;10.336;2022-10-16T14:29:20;24.70;99.90
35565;DHT22;21668;44.784;10.336;2022-10-16T14:33:41;24.70;99.90
35565;DHT22;21668;44.784;10.336;2022-10-16T14:37:28;24.60;99.90
35565;DHT22;21668;44.784;10.336;2022-10-16T14:40:37;24.60;99.90
35565;DHT22;21668;44.784;10.336;2022-10-16T14:43:43;24.50;99.90
35565;DHT22;21668;44.784;10.336;2022-10-16T14:46:53;24.50;99.90
35565;DHT22;21668;44.784;10.336;2022-10-16T14:50:26;24.40;99.90
35565;DHT22;21668;44.784;10.336;2022-10-16T14:53:33;24.30;99.90
35565;DHT22;21668;44.784;10.336;2022-10-16T14:57:31;24.20;99.90
35565;DHT22;21668;44.784;10.336;2022-10-16T15:00:42;24.10;99.90
35565;DHT22;21668;44.784;10.336;2022-10-16T15:04:23;24.10;99.90
35565;DHT22;21668;44.784;10.336;2022-10-16T15:07:47;24.00;99.90
35565;DHT22;21668;44.784;10.336;2022-10-16T15:11:21;23.90;99.90
35565;DHT22;21668;44.784;10.336;2022-10-16T15:24:25;23.60;99.90
35565;DHT22;21668;44.784;10.336;2022-10-16T15:27:29;23.50;99.90
35565;DHT22;21668;44.784;10.336;2022-10-16T15:30:35;23.50;99.90
35565;DHT22;21668;44.784;10.336;2022-10-16T15:33:43;23.50;99.90
35565;DHT22;21668;44.784;10.336;2022-10-16T15:36:57;23.40;99.90
35565;DHT22;21668;44.784;10.336;2022-10-16T15:40:31;23.40;99.90
35565;DHT22;21668;44.784;10.336;2022-10-16T15:43:36;23.40;99.90
35565;DHT22;21668;44.784;10.336;2022-10-16T15:46:40;23.30;99.90
35565;DHT22;21668;44.784;10.336;2022-10-16T15:49:48;23.20;99.90
35565;DHT22;21668;44.784;10.336;2022-10-16T15:52:59;23.00;99.90
35565;DHT22;21668;44.784;10.336;2022-10-16T15:56:48;22.90;99.90
35565;DHT22;21668;44.784;10.336;2022-10-16T16:00:20;22.80;99.90
35565;DHT22;21668;44.784;10.336;2022-10-16T16:04:05;22.60;99.90
35565;DHT22;21668;44.784;10.336;2022-10-16T16:07:31;22.50;99.90
35565;DHT22;21668;44.784;10.336;2022-10-16T16:11:24;22.30;99.90
35565;DHT22;21668;44.784;10.336;2022-10-16T16:14:53;22.20;99.90
35565;DHT22;21668;44.784;10.336;2022-10-16T16:18:22;22.00;99.90
35565;DHT22;21668;44.784;10.336;2022-10-16T16:22:06;21.90;99.90
35565;DHT22;21668;44.784;10.336;2022-10-16T16:29:23;21.50;99.90
35565;DHT22;21668;44.784;10.336;2022-10-16T16:32:36;21.20;99.90
35565;DHT22;21668;44.784;10.336;2022-10-16T16:36:05;21.20;99.90
35565;DHT22;21668;44.784;10.336;2022-10-16T16:39:14;21.00;99.90
35565;DHT22;21668;44.784;10.336;2022-10-16T16:42:19;20.90;99.90
35565;DHT22;21668;44.784;10.336;2022-10-16T16:45:26;20.70;99.90
35565;DHT22;21668;44.784;10.336;2022-10-16T16:48:32;20.60;99.90
35565;DHT22;21668;44.784;10.336;2022-10-16T16:52:03;20.40;99.90
35565;DHT22;21668;44.784;10.336;2022-10-16T16:55:07;20.40;99.90
35565;DHT22;21668;44.784;10.336;2022-10-16T16:58:12;20.20;99.90
35565;DHT22;21668;44.784;10.336;2022-10-16T17:01:17;20.10;99.90
35565;DHT22;21668;44.784;10.336;2022-10-16T17:04:21;20.00;99.90
35565;DHT22;21668;44.784;10.336;2022-10-16T17:07:26;19.90;99.90
35565;DHT22;21668;44.784;10.336;2022-10-16T17:10:42;19.80;99.90
35565;DHT22;21668;44.784;10.336;2022-10-16T17:14:25;19.80;99.90
35565;DHT22;21668;44.784;10.336;2022-10-16T17:17:57;19.60;99.90
35565;DHT22;21668;44.784;10.336;2022-10-16T17:21:07;19.50;99.90
35565;DHT22;21668;44.784;10.336;2022-10-16T17:24:14;19.50;99.90
35565;DHT22;21668;44.784;10.336;2022-10-16T17:27:25;19.40;99.90
35565;DHT22;21668;44.784;10.336;2022-10-16T17:30:30;19.40;99.90
35565;DHT22;21668;44.784;10.336;2022-10-16T17:33:46;19.40;99.90
35565;DHT22;21668;44.784;10.336;2022-10-16T17:36:51;19.60;99.90
35565;DHT22;21668;44.784;10.336;2022-10-16T17:39:56;19.30;99.90
35565;DHT22;21668;44.784;10.336;2022-10-16T17:43:24;19.20;99.90
35565;DHT22;21668;44.784;10.336;2022-10-16T17:46:54;19.20;99.90
35565;DHT22;21668;44.784;10.336;2022-10-16T17:50:16;19.20;99.90
35565;DHT22;21668;44.784;10.336;2022-10-16T17:53:31;19.70;99.90
35565;DHT22;21668;44.784;10.336;2022-10-16T17:57:01;19.00;99.90
35565;DHT22;21668;44.784;10.336;2022-10-16T18:00:15;18.90;99.90
35565;DHT22;21668;44.784;10.336;2022-10-16T18:03:39;18.90;99.90
35565;DHT22;21668;44.784;10.336;2022-10-16T18:06:53;18.80;99.90
35565;DHT22;21668;44.784;10.336;2022-10-16T18:10:05;18.70;99.90
35565;DHT22;21668;44.784;10.336;2022-10-16T18:13:12;18.60;99.90
35565;DHT22;21668;44.784;10.336;2022-10-16T18:16:20;18.60;99.90
35565;DHT22;21668;44.784;10.336;2022-10-16T18:19:27;18.50;99.90
35565;DHT22;21668;44.784;10.336;2022-10-16T18:22:35;18.50;99.90
35565;DHT22;21668;44.784;10.336;2022-10-16T18:25:48;18.50;99.90
35565;DHT22;21668;44.784;10.336;2022-10-16T18:28:59;18.40;99.90
35565;DHT22;21668;44.784;10.336;2022-10-16T18:32:04;18.30;99.90
35565;DHT22;21668;44.784;10.336;2022-10-16T18:35:08;18.30;99.90
35565;DHT22;21668;44.784;10.336;2022-10-16T18:38:13;18.30;99.90
35565;DHT22;21668;44.784;10.336;2022-10-16T18:41:17;18.20;99.90
35565;DHT22;21668;44.784;10.336;2022-10-16T18:44:26;18.20;99.90
35565;DHT22;21668;44.784;10.336;2022-10-16T18:47:38;18.20;99.90
35565;DHT22;21668;44.784;10.336;2022-10-16T18:50:43;18.10;99.90
35565;DHT22;21668;44.784;10.336;2022-10-16T18:53:52;18.10;99.90
35565;DHT22;21668;44.784;10.336;2022-10-16T18:57:14;18.10;99.90
35565;DHT22;21668;44.784;10.336;2022-10-16T19:00:23;18.10;99.90
35565;DHT22;21668;44.784;10.336;2022-10-16T19:03:30;18.10;99.90
35565;DHT22;21668;44.784;10.336;2022-10-16T19:06:41;18.00;99.90
35565;DHT22;21668;44.784;10.336;2022-10-16T19:10:12;18.60;99.90
35565;DHT22;21668;44.784;10.336;2022-10-16T19:13:19;18.00;99.90
35565;DHT22;21668;44.784;10.336;2022-10-16T19:16:29;17.90;99.90
35565;DHT22;21668;44.784;10.336;2022-10-16T19:19:36;17.90;99.90
35565;DHT22;21668;44.784;10.336;2022-10-16T19:23:02;17.80;99.90
35565;DHT22;21668;44.784;10.336;2022-10-16T19:26:09;17.80;99.90
35565;DHT22;21668;44.784;10.336;2022-10-16T19:29:14;17.80;99.90
35565;DHT22;21668;44.784;10.336;2022-10-16T19:32:22;17.80;99.90
35565;DHT22;21668;44.784;10.336;2022-10-16T19:35:34;17.80;99.90
35565;DHT22;21668;44.784;10.336;2022-10-16T19:38:39;17.70;99.90
35565;DHT22;21668;44.784;10.336;2022-10-16T19:41:46;17.70;99.90
35565;DHT22;21668;44.784;10.336;2022-10-16T19:45:09;17.60;99.90
35565;DHT22;21668;44.784;10.336;2022-10-16T19:48:17;17.60;99.90
35565;DHT22;21668;44.784;10.336;2022-10-16T19:51:22;17.60;99.90
35565;DHT22;21668;44.784;10.336;2022-10-16T19:54:30;17.60;99.90
35565;DHT22;21668;44.784;10.336;2022-10-16T19:57:37;17.60;99.90
35565;DHT22;21668;44.784;10.336;2022-10-16T20:01:05;17.60;99.90
35565;DHT22;21668;44.784;10.336;2022-10-16T20:04:12;17.50;99.90
35565;DHT22;21668;44.784;10.336;2022-10-16T20:07:22;17.50;99.90
35565;DHT22;21668;44.784;10.336;2022-10-16T20:10:30;17.50;99.90
35565;DHT22;21668;44.784;10.336;2022-10-16T20:13:35;17.50;99.90
35565;DHT22;21668;44.784;10.336;2022-10-16T20:16:39;17.50;99.90
35565;DHT22;21668;44.784;10.336;2022-10-16T20:19:48;17.50;99.90
35565;DHT22;21668;44.784;10.336;2022-10-16T20:22:58;17.50;99.90
35565;DHT22;21668;44.784;10.336;2022-10-16T20:26:03;17.50;99.90
35565;DHT22;21668;44.784;10.336;2022-10-16T20:29:10;17.50;99.90
35565;DHT22;21668;44.784;10.336;2022-10-16T20:32:14;17.50;99.90
35565;DHT22;21668;44.784;10.336;2022-10-16T20:35:20;17.50;99.90
35565;DHT22;21668;44.784;10.336;2022-10-16T20:38:24;17.40;99.90
35565;DHT22;21668;44.784;10.336;2022-10-16T20:41:29;17.40;99.90
35565;DHT22;21668;44.784;10.336;2022-10-16T20:44:35;17.40;99.90
35565;DHT22;21668;44.784;10.336;2022-10-16T20:47:44;17.40;99.90
35565;DHT22;21668;44.784;10.336;2022-10-16T20:50:48;17.40;99.90
35565;DHT22;21668;44.784;10.336;2022-10-16T20:54:01;17.30;99.90
35565;DHT22;21668;44.784;10.336;2022-10-16T20:57:06;17.40;99.90
35565;DHT22;21668;44.784;10.336;2022-10-16T21:00:11;17.30;99.90
35565;DHT22;21668;44.784;10.336;2022-10-16T21:03:16;17.30;99.90
35565;DHT22;21668;44.784;10.336;2022-10-16T21:06:25;17.30;99.90
35565;DHT22;21668;44.784;10.336;2022-10-16T21:09:35;17.30;99.90
35565;DHT22;21668;44.784;10.336;2022-10-16T21:13:08;17.30;99.90
35565;DHT22;21668;44.784;10.336;2022-10-16T21:16:58;17.30;99.90
35565;DHT22;21668;44.784;10.336;2022-10-16T21:24:36;17.20;99.90
35565;DHT22;21668;44.784;10.336;2022-10-16T21:28:31;17.20;99.90
35565;DHT22;21668;44.784;10.336;2022-10-16T21:31:43;17.20;99.90
35565;DHT22;21668;44.784;10.336;2022-10-16T21:35:46;17.20;99.90
35565;DHT22;21668;44.784;10.336;2022-10-16T21:44:35;17.20;99.90
35565;DHT22;21668;44.784;10.336;2022-10-16T21:49:03;17.20;99.90
35565;DHT22;21668;44.784;10.336;2022-10-16T21:53:17;17.20;99.90
35565;DHT22;21668;44.784;10.336;2022-10-16T21:56:36;17.20;99.90
35565;DHT22;21668;44.784;10.336;2022-10-16T22:09:08;17.00;99.90
35565;DHT22;21668;44.784;10.336;2022-10-16T22:12:15;17.00;99.90
35565;DHT22;21668;44.784;10.336;2022-10-16T22:15:22;17.00;99.90
35565;DHT22;21668;44.784;10.336;2022-10-16T22:18:45;17.00;99.90
35565;DHT22;21668;44.784;10.336;2022-10-16T22:22:04;16.90;99.90
35565;DHT22;21668;44.784;10.336;2022-10-16T22:25:12;16.80;99.90
35565;DHT22;21668;44.784;10.336;2022-10-16T22:28:50;16.80;99.90
35565;DHT22;21668;44.784;10.336;2022-10-16T22:32:29;16.60;99.90
35565;DHT22;21668;44.784;10.336;2022-10-16T22:35:38;16.70;99.90
35565;DHT22;21668;44.784;10.336;2022-10-16T22:38:43;16.60;99.90
35565;DHT22;21668;44.784;10.336;2022-10-16T22:41:48;16.60;99.90
35565;DHT22;21668;44.784;10.336;2022-10-16T22:44:54;16.60;99.90
35565;DHT22;21668;44.784;10.336;2022-10-16T22:47:59;16.60;99.90
35565;DHT22;21668;44.784;10.336;2022-10-16T22:51:07;16.60;99.90
35565;DHT22;21668;44.784;10.336;2022-10-16T22:54:12;16.50;99.90
35565;DHT22;21668;44.784;10.336;2022-10-16T22:57:19;16.40;99.90
35565;DHT22;21668;44.784;10.336;2022-10-16T23:00:26;16.40;99.90
35565;DHT22;21668;44.784;10.336;2022-10-16T23:04:13;16.30;99.90
35565;DHT22;21668;44.784;10.336;2022-10-16T23:07:36;16.30;99.90
35565;DHT22;21668;44.784;10.336;2022-10-16T23:10:42;16.20;99.90
35565;DHT22;21668;44.784;10.336;2022-10-16T23:13:51;16.20;99.90
35565;DHT22;21668;44.784;10.336;2022-10-16T23:17:21;15.60;99.90
35565;DHT22;21668;44.784;10.336;2022-10-16T23:20:25;16.10;99.90
35565;DHT22;21668;44.784;10.336;2022-10-16T23:23:35;16.10;99.90
35565;DHT22;21668;44.784;10.336;2022-10-16T23:26:40;15.70;99.90
35565;DHT22;21668;44.784;10.336;2022-10-16T23:29:46;16.00;99.90
35565;DHT22;21668;44.784;10.336;2022-10-16T23:32:53;16.00;99.90
35565;DHT22;21668;44.784;10.336;2022-10-16T23:36:20;16.00;99.90
35565;DHT22;21668;44.784;10.336;2022-10-16T23:40:04;15.90;99.90
35565;DHT22;21668;44.784;10.336;2022-10-16T23:44:00;15.80;99.90
35565;DHT22;21668;44.784;10.336;2022-10-16T23:47:36;15.80;99.90
35565;DHT22;21668;44.784;10.336;2022-10-16T23:50:47;15.80;99.90
35565;DHT22;21668;44.784;10.336;2022-10-16T23:54:01;15.80;99.90
35565;DHT22;21668;44.784;10.336;2022-10-16T23:57:12;15.70;99.90
